Time;durP1;ratioP1;P1;durP2;ratioP2;P2;SDS_P1;SDS_P2;PMS_P1;PMS_P2;Temp;Humidity;BMP_temperature;BMP_pressure;BME280_temperature;BME280_humidity;BME280_pressure;Samples;Min_cycle;Max_cycle;Signal;HPM_P1;HPM_P2
2024/04/10 00:00:38;;;;;;;1.67;0.55;;;13.20;59.60;;;;;;6540187;27;20008;-73
2024/04/10 00:03:39;;;;;;;0.73;0.32;;;13.30;59.30;;;;;;6529583;27;20704;-74
2024/04/10 00:06:40;;;;;;;0.65;0.30;;;13.40;59.00;;;;;;6569290;27;20017;-74
2024/04/10 00:09:41;;;;;;;0.40;0.20;;;13.50;58.60;;;;;;6543551;26;20617;-74
2024/04/10 00:12:43;;;;;;;0.32;0.22;;;13.50;58.10;;;;;;6567303;27;20012;-73
2024/04/10 00:15:44;;;;;;;0.10;0.10;;;13.50;57.90;;;;;;6569386;27;20092;-73
2024/04/10 00:18:45;;;;;;;3.20;0.47;;;13.50;57.80;;;;;;6572044;26;20124;-74
2024/04/10 00:21:48;;;;;;;0.10;0.10;;;13.40;57.80;;;;;;6571568;26;19998;-72
2024/04/10 00:24:51;;;;;;;0.32;0.20;;;13.40;58.00;;;;;;6540607;27;20002;-73
2024/04/10 00:27:52;;;;;;;1.35;0.30;;;13.40;57.70;;;;;;6568714;27;20369;-73
2024/04/10 00:30:53;;;;;;;1.98;0.40;;;13.50;57.60;;;;;;6568804;26;20017;-74
2024/04/10 00:33:55;;;;;;;0.68;0.25;;;13.40;57.40;;;;;;6539014;27;20360;-73
2024/04/10 00:36:57;;;;;;;4.78;0.50;;;13.40;57.60;;;;;;6569093;26;20067;-73
2024/04/10 00:39:58;;;;;;;0.25;0.25;;;13.40;57.90;;;;;;6569716;26;20017;-73
2024/04/10 00:43:02;;;;;;;2.30;0.22;;;13.40;57.90;;;;;;6568446;27;20282;-74
2024/04/10 00:46:15;;;;;;;1.13;0.43;;;13.40;57.70;;;;;;6571524;26;20679;-74
2024/04/10 00:49:16;;;;;;;0.20;0.20;;;13.50;57.20;;;;;;6570490;26;20002;-73
2024/04/10 00:52:18;;;;;;;0.20;0.20;;;13.50;56.80;;;;;;6540226;27;20075;-73
2024/04/10 00:55:22;;;;;;;0.40;0.30;;;13.50;56.20;;;;;;6570069;26;20173;-73
2024/04/10 00:58:23;;;;;;;1.45;0.38;;;13.60;56.00;;;;;;6542147;27;20002;-73
2024/04/10 01:01:24;;;;;;;0.55;0.22;;;13.60;55.80;;;;;;6568803;27;20025;-72
2024/04/10 01:04:25;;;;;;;0.30;0.20;;;13.70;55.80;;;;;;6570206;27;20009;-76
2024/04/10 01:07:28;;;;;;;3.63;0.52;;;13.70;55.50;;;;;;6570460;27;20513;-73
2024/04/10 01:10:30;;;;;;;3.88;0.82;;;13.70;55.20;;;;;;6571287;27;20103;-73
2024/04/10 01:13:32;;;;;;;1.02;0.40;;;13.60;55.00;;;;;;6563581;27;19998;-73
2024/04/10 01:16:33;;;;;;;0.47;0.40;;;13.60;55.10;;;;;;6571261;27;20009;-73
2024/04/10 01:19:33;;;;;;;1.45;0.52;;;13.50;55.10;;;;;;6572600;27;20016;-74
2024/04/10 01:22:35;;;;;;;2.47;0.50;;;13.60;55.10;;;;;;6543856;27;20012;-72
2024/04/10 01:25:39;;;;;;;0.30;0.28;;;13.50;55.20;;;;;;6571482;27;20783;-74
2024/04/10 01:28:40;;;;;;;2.08;0.60;;;13.50;55.10;;;;;;6544593;27;20438;-75
2024/04/10 01:31:40;;;;;;;6.03;0.88;;;13.50;55.00;;;;;;6548571;27;19998;-74
2024/04/10 01:34:43;;;;;;;4.00;0.82;;;13.60;55.00;;;;;;6564725;27;20011;-74
2024/04/10 01:37:44;;;;;;;0.30;0.30;;;13.50;54.90;;;;;;6574035;26;19998;-74
2024/04/10 01:40:45;;;;;;;1.48;0.20;;;13.50;54.90;;;;;;6573124;27;19998;-73
2024/04/10 01:43:46;;;;;;;1.27;0.30;;;13.50;55.00;;;;;;6544625;27;20595;-74
2024/04/10 01:46:47;;;;;;;1.42;0.50;;;13.50;55.00;;;;;;6572603;27;20005;-74
2024/04/10 01:49:50;;;;;;;0.43;0.28;;;13.60;54.80;;;;;;6572530;27;20445;-75
2024/04/10 01:52:51;;;;;;;0.45;0.30;;;13.60;54.90;;;;;;6555353;27;20335;-73
2024/04/10 01:55:51;;;;;;;0.45;0.20;;;13.40;54.70;;;;;;6571761;27;20040;-74
2024/04/10 01:58:56;;;;;;;3.60;0.50;;;13.50;54.50;;;;;;6574346;26;20179;-75
2024/04/10 02:01:57;;;;;;;4.43;0.43;;;13.50;54.70;;;;;;6571878;27;20002;-74
2024/04/10 02:04:58;;;;;;;1.02;0.52;;;13.50;54.80;;;;;;6570111;26;20512;-76
2024/04/10 02:07:59;;;;;;;0.40;0.40;;;13.50;54.60;;;;;;6571096;27;20008;-73
2024/04/10 02:11:19;;;;;;;1.73;0.50;;;13.50;54.50;;;;;;6573405;27;20470;-74
2024/04/10 02:14:20;;;;;;;2.42;0.30;;;13.40;54.50;;;;;;6543114;27;20846;-73
2024/04/10 02:17:21;;;;;;;1.33;0.50;;;13.40;54.70;;;;;;6571278;27;19998;-74
2024/04/10 02:20:22;;;;;;;1.42;0.40;;;13.40;54.70;;;;;;6574019;26;20042;-76
2024/04/10 02:23:24;;;;;;;2.95;0.60;;;13.40;54.60;;;;;;6571194;27;20428;-74
2024/04/10 02:26:27;;;;;;;1.25;0.60;;;13.50;54.50;;;;;;6574762;26;20005;-73
2024/04/10 02:29:30;;;;;;;0.45;0.32;;;13.40;54.30;;;;;;6558185;26;20017;-74
2024/04/10 02:32:31;;;;;;;5.03;0.60;;;13.40;54.20;;;;;;6572777;26;20506;-74
2024/04/10 02:35:33;;;;;;;1.33;0.70;;;13.40;54.10;;;;;;6573041;26;20068;-73
2024/04/10 02:38:35;;;;;;;0.60;0.40;;;13.40;54.10;;;;;;6570716;27;20356;-74
2024/04/10 02:41:37;;;;;;;2.30;0.43;;;13.40;54.20;;;;;;6572244;27;20010;-75
2024/04/10 02:44:39;;;;;;;0.88;0.22;;;13.30;54.20;;;;;;6571304;27;19998;-73
2024/04/10 02:47:40;;;;;;;1.00;0.35;;;13.40;54.20;;;;;;6570932;27;20192;-74
2024/04/10 02:50:41;;;;;;;1.48;0.45;;;13.40;53.90;;;;;;6570795;26;19998;-73
2024/04/10 02:53:41;;;;;;;1.27;0.55;;;13.40;53.70;;;;;;6570890;27;20008;-74
2024/04/10 02:56:42;;;;;;;2.03;0.65;;;13.40;53.60;;;;;;6542797;27;20047;-74
2024/04/10 02:59:43;;;;;;;2.00;0.57;;;13.40;53.40;;;;;;6542183;27;20001;-73
2024/04/10 03:02:47;;;;;;;2.03;0.38;;;13.40;53.50;;;;;;6539836;27;20074;-73
2024/04/10 03:06:00;;;;;;;4.25;0.85;;;13.40;53.60;;;;;;6570114;27;20010;-74
2024/04/10 03:09:01;;;;;;;1.48;0.45;;;13.40;53.70;;;;;;6571267;27;20009;-74
2024/04/10 03:12:02;;;;;;;5.63;0.57;;;13.40;53.70;;;;;;6570028;26;20460;-74
2024/04/10 03:15:04;;;;;;;1.08;0.55;;;13.30;54.00;;;;;;6570770;27;20026;-74
2024/04/10 03:18:07;;;;;;;1.25;0.55;;;13.20;54.10;;;;;;6570557;26;20021;-73
2024/04/10 03:21:08;;;;;;;0.55;0.40;;;13.20;54.30;;;;;;6569179;27;20016;-73
2024/04/10 03:24:08;;;;;;;0.57;0.40;;;13.20;54.40;;;;;;6562449;27;20010;-74
2024/04/10 03:27:09;;;;;;;2.35;0.90;;;13.20;54.50;;;;;;6572031;26;20025;-73
2024/04/10 03:30:11;;;;;;;2.95;0.35;;;13.20;54.50;;;;;;6570796;27;19994;-74
2024/04/10 03:33:12;;;;;;;9.18;1.20;;;13.20;54.40;;;;;;6564095;27;20350;-73
2024/04/10 03:36:13;;;;;;;4.47;0.88;;;13.10;54.50;;;;;;6564689;27;20072;-75
2024/04/10 03:39:14;;;;;;;2.08;0.95;;;13.20;54.70;;;;;;6539016;27;20334;-74
2024/04/10 03:42:14;;;;;;;6.15;1.50;;;13.20;54.80;;;;;;6568569;27;20503;-73
2024/04/10 03:46:56;;;;;;;2.53;1.70;;;13.10;54.90;;;;;;6879407;25;20324;-72
2024/04/10 03:50:00;;;;;;;6.15;2.63;;;13.20;55.00;;;;;;6782084;26;19998;-73
2024/04/10 03:53:01;;;;;;;14.13;4.18;;;13.10;55.20;;;;;;6782497;26;20005;-72
2024/04/10 03:56:04;;;;;;;10.43;4.38;;;13.00;55.30;;;;;;6817161;25;20022;-72
2024/04/10 03:59:05;;;;;;;9.73;4.18;;;13.00;55.40;;;;;;6832007;25;20037;-73
2024/04/10 04:02:05;;;;;;;6.22;2.65;;;13.00;55.50;;;;;;6857277;25;19997;-73
2024/04/10 04:05:06;;;;;;;3.50;1.75;;;13.10;55.50;;;;;;6853695;25;20049;-73
2024/04/10 04:08:07;;;;;;;6.30;1.60;;;13.00;55.40;;;;;;6796218;25;20116;-73
2024/04/10 04:11:08;;;;;;;5.57;1.80;;;13.00;55.60;;;;;;6825733;25;19994;-73
2024/04/10 04:14:10;;;;;;;4.03;1.63;;;13.00;55.70;;;;;;6826829;25;20025;-73
2024/04/10 04:17:10;;;;;;;2.33;1.20;;;12.90;55.80;;;;;;6782622;25;20348;-73
2024/04/10 04:20:15;;;;;;;2.85;1.10;;;12.80;56.10;;;;;;6825780;25;20496;-74
2024/04/10 04:23:18;;;;;;;6.00;1.15;;;12.80;56.40;;;;;;6795874;25;20005;-73
2024/04/10 04:26:19;;;;;;;0.82;0.80;;;12.70;56.60;;;;;;6859205;25;20976;-73
2024/04/10 04:29:21;;;;;;;4.30;0.85;;;12.70;56.80;;;;;;6859588;25;19997;-72
2024/04/10 04:32:22;;;;;;;1.35;0.88;;;12.90;57.00;;;;;;6860076;25;20050;-74
2024/04/10 04:35:25;;;;;;;3.65;1.20;;;12.60;56.90;;;;;;6826227;25;19993;-73
2024/04/10 04:38:26;;;;;;;1.05;0.82;;;12.80;57.10;;;;;;6825941;25;20065;-73
2024/04/10 04:41:26;;;;;;;2.60;0.90;;;12.60;56.90;;;;;;6796627;25;19993;-75
2024/04/10 04:44:27;;;;;;;1.10;0.90;;;12.60;56.90;;;;;;6825543;25;19997;-73
2024/04/10 04:47:29;;;;;;;1.15;1.10;;;12.50;56.90;;;;;;6825886;25;20080;-73
2024/04/10 04:50:30;;;;;;;3.60;1.15;;;12.50;57.00;;;;;;6766341;25;20000;-74
2024/04/10 04:53:32;;;;;;;0.57;0.50;;;12.50;57.20;;;;;;6858395;25;19997;-73
2024/04/10 04:56:34;;;;;;;3.15;0.88;;;12.40;57.50;;;;;;6814898;25;20009;-73
2024/04/10 04:59:39;;;;;;;2.00;0.90;;;12.40;57.50;;;;;;6838994;26;20012;-74
2024/04/10 05:02:42;;;;;;;5.25;1.30;;;12.30;57.40;;;;;;6760747;26;19999;-73
2024/04/10 05:05:42;;;;;;;8.48;1.23;;;12.20;57.80;;;;;;6807801;26;20007;-74
2024/04/10 05:08:45;;;;;;;1.77;0.80;;;12.10;58.20;;;;;;6772881;25;20017;-74
2024/04/10 05:11:46;;;;;;;1.10;0.88;;;12.10;58.20;;;;;;6756375;25;20000;-73
2024/04/10 05:14:48;;;;;;;1.17;0.60;;;12.10;58.20;;;;;;6810720;25;20393;-73
2024/04/10 05:17:51;;;;;;;1.10;0.80;;;12.00;58.20;;;;;;6839485;25;20111;-72
2024/04/10 05:20:53;;;;;;;4.97;1.55;;;12.00;58.40;;;;;;6805595;25;20069;-74
2024/04/10 05:23:54;;;;;;;2.70;1.23;;;12.10;58.60;;;;;;6815733;26;19993;-72
2024/04/10 05:26:55;;;;;;;1.88;1.25;;;12.10;58.70;;;;;;6807407;25;20047;-73
2024/04/10 05:29:57;;;;;;;6.38;1.40;;;12.10;58.70;;;;;;6807108;25;20034;-73
2024/04/10 05:32:59;;;;;;;6.38;1.10;;;12.20;58.60;;;;;;6839738;25;20005;-74
2024/04/10 05:36:01;;;;;;;1.10;0.60;;;12.20;58.40;;;;;;6812372;25;20015;-74
2024/04/10 05:39:03;;;;;;;3.80;1.17;;;12.30;58.20;;;;;;6807047;25;20023;-74
2024/04/10 05:42:06;;;;;;;5.10;1.45;;;12.30;57.90;;;;;;6841009;25;20009;-74
2024/04/10 05:45:10;;;;;;;1.23;0.90;;;12.40;57.80;;;;;;6841143;25;19993;-72
2024/04/10 05:48:11;;;;;;;0.68;0.68;;;12.50;57.60;;;;;;6775526;25;20380;-73
2024/04/10 05:51:12;;;;;;;4.03;1.10;;;12.50;57.30;;;;;;6838825;25;20009;-72
2024/04/10 05:54:14;;;;;;;1.33;0.85;;;12.60;57.00;;;;;;6846226;25;20019;-73
2024/04/10 05:57:17;;;;;;;1.35;0.90;;;12.70;56.70;;;;;;6806634;25;20016;-72
2024/04/10 06:00:18;;;;;;;1.35;0.90;;;12.70;56.50;;;;;;6831790;25;20032;-72
2024/04/10 06:03:19;;;;;;;2.95;1.05;;;12.70;56.20;;;;;;6848773;25;20001;-72
2024/04/10 06:06:20;;;;;;;3.13;1.02;;;12.70;56.10;;;;;;6801254;26;20066;-72
2024/04/10 06:09:21;;;;;;;3.38;0.80;;;12.70;55.80;;;;;;6807756;26;20353;-71
2024/04/10 06:12:23;;;;;;;5.20;1.27;;;12.70;55.80;;;;;;6802479;26;20289;-71
2024/04/10 06:15:24;;;;;;;5.25;1.15;;;12.70;55.90;;;;;;6802084;26;20081;-72
2024/04/10 06:18:25;;;;;;;4.93;1.10;;;12.70;55.90;;;;;;6834508;26;20119;-73
2024/04/10 06:21:26;;;;;;;7.30;0.95;;;12.80;55.80;;;;;;6803492;26;20397;-71
2024/04/10 06:24:27;;;;;;;0.75;0.75;;;12.70;55.50;;;;;;6804613;25;19989;-73
2024/04/10 06:27:28;;;;;;;3.17;1.35;;;12.80;55.50;;;;;;6760749;26;20062;-73
2024/04/10 06:30:29;;;;;;;2.20;1.02;;;12.70;55.40;;;;;;6772827;26;20022;-72
2024/04/10 06:33:31;;;;;;;10.77;1.35;;;12.80;55.50;;;;;;6796752;26;20017;-72
2024/04/10 06:36:34;;;;;;;2.53;1.30;;;12.90;55.20;;;;;;6767558;26;20093;-72
2024/04/10 06:39:35;;;;;;;3.50;0.90;;;12.90;55.10;;;;;;6805384;26;20679;-73
2024/04/10 06:42:38;;;;;;;5.72;1.20;;;13.00;55.20;;;;;;6836686;26;20013;-72
2024/04/10 06:45:39;;;;;;;2.38;0.80;;;13.10;54.90;;;;;;6836971;26;19989;-72
2024/04/10 06:48:40;;;;;;;3.58;0.93;;;13.10;54.80;;;;;;6796771;26;20482;-72
2024/04/10 06:51:41;;;;;;;3.08;1.42;;;13.20;54.60;;;;;;6801741;26;19998;-72
2024/04/10 06:54:42;;;;;;;3.42;0.70;;;13.20;54.30;;;;;;6772529;26;20023;-72
2024/04/10 06:57:45;;;;;;;3.60;1.17;;;13.20;54.20;;;;;;6804668;26;19997;-73
2024/04/10 07:01:00;;;;;;;1.00;0.80;;;13.20;54.40;;;;;;6803924;26;19997;-73
2024/04/10 07:04:01;;;;;;;3.15;1.05;;;13.20;54.20;;;;;;6803591;26;20005;-72
2024/04/10 07:07:03;;;;;;;1.70;1.08;;;13.20;54.30;;;;;;6836761;26;20013;-72
2024/04/10 07:10:05;;;;;;;3.25;0.98;;;13.10;54.50;;;;;;6833523;26;20094;-73
2024/04/10 07:13:06;;;;;;;2.85;1.13;;;13.00;54.50;;;;;;6772544;26;20044;-72
2024/04/10 07:16:07;;;;;;;1.48;0.85;;;13.00;54.60;;;;;;6802896;25;20106;-71
2024/04/10 07:19:08;;;;;;;1.08;0.70;;;13.00;54.90;;;;;;6772018;26;20482;-71
2024/04/10 07:22:11;;;;;;;2.85;0.63;;;12.90;54.90;;;;;;6773240;26;20291;-72
2024/04/10 07:25:12;;;;;;;2.05;0.80;;;12.90;54.90;;;;;;6803787;26;20004;-73
2024/04/10 07:28:13;;;;;;;4.78;1.45;;;12.90;55.20;;;;;;6803503;26;19997;-71
2024/04/10 07:31:16;;;;;;;4.93;1.55;;;12.90;55.00;;;;;;6835334;26;20004;-73
2024/04/10 07:34:18;;;;;;;2.08;0.77;;;12.90;54.80;;;;;;6835675;25;20058;-72
2024/04/10 07:37:19;;;;;;;1.15;1.08;;;12.90;54.80;;;;;;6836713;26;20013;-71
2024/04/10 07:40:20;;;;;;;4.68;0.93;;;12.80;54.50;;;;;;6802570;26;20001;-72
2024/04/10 07:43:21;;;;;;;6.10;1.85;;;12.90;54.80;;;;;;6817720;26;19994;-71
2024/04/10 07:46:22;;;;;;;1.35;1.00;;;12.90;55.00;;;;;;6825770;26;20001;-73
2024/04/10 07:49:23;;;;;;;4.18;0.88;;;12.80;54.90;;;;;;6820042;26;19998;-72
2024/04/10 07:52:24;;;;;;;2.78;0.68;;;12.80;54.70;;;;;;6831716;26;20573;-72
2024/04/10 07:55:26;;;;;;;1.60;1.00;;;12.80;54.60;;;;;;6833283;26;20116;-72
2024/04/10 07:58:33;;;;;;;1.08;0.68;;;12.90;54.50;;;;;;6823966;26;20429;-73
2024/04/10 08:01:34;;;;;;;7.00;1.83;;;12.90;54.60;;;;;;6829334;26;20404;-70
2024/04/10 08:04:35;;;;;;;1.42;1.00;;;13.00;54.70;;;;;;6834180;26;20082;-71
2024/04/10 08:07:37;;;;;;;5.32;0.93;;;13.10;54.80;;;;;;6833278;25;20013;-74
2024/04/10 08:10:40;;;;;;;3.17;0.80;;;13.10;54.40;;;;;;6832353;26;20013;-72
2024/04/10 08:13:41;;;;;;;1.58;1.00;;;13.20;54.20;;;;;;6834089;26;19998;-72
2024/04/10 08:16:45;;;;;;;1.40;0.60;;;13.20;54.00;;;;;;6833166;26;20664;-72
2024/04/10 08:19:46;;;;;;;5.40;1.38;;;13.30;53.80;;;;;;6830999;26;20011;-70
2024/04/10 08:22:47;;;;;;;1.17;0.60;;;13.30;53.70;;;;;;6831998;25;20025;-72
2024/04/10 08:25:48;;;;;;;5.82;0.98;;;13.40;53.60;;;;;;6832075;26;20289;-71
2024/04/10 08:28:49;;;;;;;5.47;0.70;;;13.50;53.50;;;;;;6832791;25;19997;-72
2024/04/10 08:31:50;;;;;;;3.20;1.13;;;13.50;53.20;;;;;;6835850;25;20069;-71
2024/04/10 08:34:51;;;;;;;3.95;1.85;;;13.60;52.90;;;;;;6837744;26;19994;-72
2024/04/10 08:37:52;;;;;;;2.20;0.52;;;13.60;52.70;;;;;;6838705;26;20095;-70
2024/04/10 08:40:58;;;;;;;7.40;1.20;;;13.60;52.60;;;;;;6837143;25;19994;-71
2024/04/10 08:43:59;;;;;;;3.63;0.93;;;13.60;52.40;;;;;;6837569;26;20009;-72
2024/04/10 08:47:00;;;;;;;0.90;0.73;;;13.60;52.20;;;;;;6838993;26;20061;-71
2024/04/10 08:50:02;;;;;;;2.15;1.25;;;13.60;51.70;;;;;;6806000;26;20000;-70
2024/04/10 08:53:03;;;;;;;5.18;1.10;;;13.70;51.50;;;;;;6805148;26;20026;-70
2024/04/10 08:56:05;;;;;;;5.45;0.82;;;13.70;51.20;;;;;;6838127;26;20064;-71
2024/04/10 08:59:07;;;;;;;3.63;0.98;;;13.80;51.30;;;;;;6776857;26;20008;-71
2024/04/10 09:02:08;;;;;;;0.50;0.50;;;14.00;51.10;;;;;;6807529;26;20008;-70
2024/04/10 09:05:09;;;;;;;4.53;1.13;;;14.00;50.70;;;;;;6806273;26;20009;-74
2024/04/10 09:08:10;;;;;;;10.55;0.80;;;14.10;50.40;;;;;;6806917;26;20161;-71
2024/04/10 09:11:11;;;;;;;0.90;0.73;;;14.20;50.30;;;;;;6831317;25;20046;-72
2024/04/10 09:14:12;;;;;;;1.30;0.75;;;14.30;50.20;;;;;;6776721;26;20011;-71
2024/04/10 09:17:17;;;;;;;2.00;0.52;;;14.50;49.50;;;;;;6806881;26;20005;-70
2024/04/10 09:20:18;;;;;;;5.00;0.70;;;14.60;49.10;;;;;;6805530;26;20036;-72
2024/04/10 09:23:19;;;;;;;2.50;0.73;;;14.80;48.80;;;;;;6778793;26;19994;-72
2024/04/10 09:26:20;;;;;;;1.80;0.90;;;14.90;48.40;;;;;;6781954;26;20001;-73
2024/04/10 09:29:28;;;;;;;4.63;0.80;;;15.00;47.70;;;;;;6834029;26;20480;-72
2024/04/10 09:32:33;;;;;;;3.22;0.82;;;15.10;47.40;;;;;;6751954;26;20014;-71
2024/04/10 09:35:36;;;;;;;6.18;1.02;;;15.30;46.70;;;;;;6755674;26;20005;-71
2024/04/10 09:38:38;;;;;;;7.07;0.98;;;15.40;46.20;;;;;;6805062;26;19997;-71
2024/04/10 09:41:43;;;;;;;2.85;1.10;;;15.50;45.90;;;;;;6805203;26;20009;-71
2024/04/10 09:44:50;;;;;;;2.15;0.90;;;15.60;45.80;;;;;;6774911;25;20001;-72
2024/04/10 09:47:53;;;;;;;2.40;1.00;;;15.90;45.70;;;;;;6834654;25;20116;-71
2024/04/10 09:50:57;;;;;;;3.50;0.98;;;15.90;45.10;;;;;;6836766;25;20891;-71
2024/04/10 09:53:59;;;;;;;5.82;0.68;;;16.00;44.50;;;;;;6802262;25;20008;-70
2024/04/10 09:57:00;;;;;;;6.68;0.82;;;16.00;44.10;;;;;;6803220;25;20020;-71
2024/04/10 10:00:02;;;;;;;2.25;0.95;;;16.00;44.10;;;;;;6859001;25;20013;-72
2024/04/10 10:03:09;;;;;;;4.80;0.75;;;16.00;44.50;;;;;;6810980;25;20037;-72
2024/04/10 10:06:11;;;;;;;7.53;1.00;;;16.20;44.50;;;;;;6835827;25;19993;-71
2024/04/10 10:09:23;;;;;;;2.92;0.85;;;16.30;44.40;;;;;;6849097;25;20420;-72
2024/04/10 10:12:26;;;;;;;3.47;1.00;;;16.70;44.10;;;;;;6851383;25;19997;-73
2024/04/10 10:15:27;;;;;;;3.22;1.00;;;16.60;43.70;;;;;;6863918;25;20071;-71
2024/04/10 10:18:32;;;;;;;1.38;0.80;;;16.60;43.80;;;;;;6847569;25;20017;-71
2024/04/10 10:21:34;;;;;;;9.02;1.13;;;16.70;43.70;;;;;;6835784;25;20022;-71
2024/04/10 10:24:36;;;;;;;12.18;2.47;;;16.80;43.40;;;;;;6804980;26;20069;-72
2024/04/10 10:27:41;;;;;;;3.80;1.55;;;16.70;43.20;;;;;;6775708;25;20002;-71
2024/04/10 10:30:42;;;;;;;8.15;2.10;;;16.80;42.90;;;;;;6806446;26;19997;-72
2024/04/10 10:33:44;;;;;;;3.10;1.13;;;16.80;43.00;;;;;;6780163;26;20005;-70
2024/04/10 10:36:50;;;;;;;2.05;0.65;;;16.90;42.90;;;;;;6805221;26;19997;-71
2024/04/10 10:39:53;;;;;;;2.22;0.80;;;17.00;42.80;;;;;;6774468;26;20196;-72
2024/04/10 10:43:06;;;;;;;11.27;1.77;;;17.20;42.30;;;;;;6818262;25;19998;-71
2024/04/10 10:46:08;;;;;;;5.45;1.65;;;17.30;41.90;;;;;;6839366;25;19997;-72
2024/04/10 10:49:10;;;;;;;2.53;0.60;;;17.60;40.50;;;;;;6806284;25;20009;-72
2024/04/10 10:52:12;;;;;;;5.45;0.90;;;17.80;40.00;;;;;;6784897;26;20464;-72
2024/04/10 10:55:14;;;;;;;3.65;0.75;;;17.70;40.10;;;;;;6806260;25;20016;-71
2024/04/10 10:58:17;;;;;;;3.28;0.70;;;17.60;40.00;;;;;;6811191;25;20010;-73
2024/04/10 11:01:20;;;;;;;3.47;0.75;;;17.50;40.40;;;;;;6804581;25;19997;-71
2024/04/10 11:04:21;;;;;;;8.35;0.45;;;17.40;40.60;;;;;;6837551;25;19989;-71
2024/04/10 11:07:24;;;;;;;4.82;1.27;;;17.40;40.40;;;;;;6777618;25;20008;-72
2024/04/10 11:10:28;;;;;;;0.82;0.52;;;17.40;40.50;;;;;;6777561;25;20005;-72
2024/04/10 11:13:30;;;;;;;1.90;0.70;;;17.50;40.60;;;;;;6833422;25;19993;-72
2024/04/10 11:16:32;;;;;;;2.05;0.80;;;17.40;39.80;;;;;;6838319;25;20000;-71
2024/04/10 11:19:34;;;;;;;3.88;0.82;;;17.30;40.00;;;;;;6777355;25;20089;-73
2024/04/10 11:22:36;;;;;;;2.47;0.70;;;17.40;39.90;;;;;;6810987;25;19996;-71
2024/04/10 11:25:39;;;;;;;2.75;0.65;;;17.40;39.60;;;;;;6840003;25;20399;-72
2024/04/10 11:28:41;;;;;;;2.08;1.02;;;17.50;39.60;;;;;;6836183;25;20031;-71
2024/04/10 11:31:42;;;;;;;3.60;0.90;;;17.80;39.70;;;;;;6840461;25;20019;-72
2024/04/10 11:34:43;;;;;;;7.30;0.85;;;18.00;39.40;;;;;;6778128;25;20333;-71
2024/04/10 11:37:45;;;;;;;0.45;0.35;;;18.10;38.80;;;;;;6808001;25;20013;-71
2024/04/10 11:40:48;;;;;;;6.80;1.13;;;18.20;38.60;;;;;;6839205;25;20028;-71
2024/04/10 11:43:49;;;;;;;3.67;0.60;;;18.20;37.50;;;;;;6804621;25;20060;-72
2024/04/10 11:46:50;;;;;;;2.30;0.55;;;18.00;37.00;;;;;;6807402;25;20009;-71
2024/04/10 11:49:52;;;;;;;2.72;0.70;;;17.90;36.80;;;;;;6835555;25;20012;-71
2024/04/10 11:52:52;;;;;;;1.05;0.52;;;17.90;36.20;;;;;;6802849;25;20037;-72
2024/04/10 11:55:55;;;;;;;3.75;0.82;;;18.00;35.40;;;;;;6833475;25;19998;-71
2024/04/10 11:58:56;;;;;;;0.98;0.50;;;18.10;35.30;;;;;;6835307;25;20087;-71
2024/04/10 12:01:57;;;;;;;2.00;0.50;;;18.20;35.10;;;;;;6833661;25;20010;-72
2024/04/10 12:05:01;;;;;;;4.28;0.82;;;18.30;35.50;;;;;;6800794;25;20775;-72
2024/04/10 12:08:02;;;;;;;4.50;0.65;;;18.30;35.10;;;;;;6845140;25;20454;-72
2024/04/10 12:11:05;;;;;;;1.40;0.70;;;18.30;35.40;;;;;;6839990;25;20011;-72
2024/04/10 12:14:06;;;;;;;8.07;1.88;;;18.20;34.60;;;;;;6843409;25;20045;-71
2024/04/10 12:17:08;;;;;;;8.00;1.23;;;18.10;35.00;;;;;;6845516;25;20570;-73
2024/04/10 12:20:09;;;;;;;4.25;0.70;;;18.00;35.40;;;;;;6808303;25;20015;-72
2024/04/10 12:23:10;;;;;;;6.50;0.55;;;18.00;35.10;;;;;;6839839;25;20033;-71
2024/04/10 12:26:12;;;;;;;0.52;0.30;;;18.10;35.20;;;;;;6866379;25;20313;-70
2024/04/10 12:29:13;;;;;;;2.03;0.28;;;18.00;34.80;;;;;;6861192;25;20372;-72
2024/04/10 12:32:16;;;;;;;0.20;0.20;;;17.90;34.30;;;;;;6808332;25;20074;-73
2024/04/10 12:38:57;;;;;;;0.93;0.45;;;17.80;34.50;;;;;;6789254;26;20047;-71
2024/04/10 12:41:58;;;;;;;1.98;0.50;;;17.90;34.50;;;;;;6761179;26;20509;-72
2024/04/10 12:44:59;;;;;;;3.33;0.35;;;17.80;34.10;;;;;;6729847;26;20010;-72
2024/04/10 12:48:00;;;;;;;1.27;0.52;;;17.80;34.10;;;;;;6785328;26;20017;-73
2024/04/10 12:51:03;;;;;;;1.10;0.52;;;17.70;34.20;;;;;;6762697;26;20060;-71
2024/04/10 12:54:04;;;;;;;8.52;0.50;;;17.70;34.50;;;;;;6735452;26;20054;-72
2024/04/10 12:57:05;;;;;;;0.95;0.45;;;17.70;34.50;;;;;;6807161;26;20429;-71
2024/04/10 13:00:06;;;;;;;1.33;0.57;;;17.60;34.60;;;;;;6818302;26;20678;-71
2024/04/10 13:03:08;;;;;;;1.63;0.50;;;17.70;34.60;;;;;;6803478;26;20029;-72
2024/04/10 13:06:08;;;;;;;2.53;0.32;;;17.60;34.40;;;;;;6730237;26;20040;-71
2024/04/10 13:09:12;;;;;;;1.92;0.30;;;17.60;34.40;;;;;;6795276;25;20598;-70
2024/04/10 13:12:13;;;;;;;3.15;0.20;;;17.60;33.90;;;;;;6813086;25;20002;-72
2024/04/10 13:15:14;;;;;;;2.35;0.75;;;17.60;33.80;;;;;;6830245;25;20386;-72
2024/04/10 13:18:15;;;;;;;1.75;0.22;;;17.60;34.00;;;;;;6840034;25;20105;-71
2024/04/10 13:21:16;;;;;;;2.15;0.65;;;17.60;33.70;;;;;;6843208;25;20342;-70
2024/04/10 13:24:17;;;;;;;0.55;0.40;;;17.60;33.60;;;;;;6806774;25;19993;-71
2024/04/10 13:27:18;;;;;;;0.77;0.47;;;17.60;33.70;;;;;;6802241;25;20320;-70
2024/04/10 13:30:20;;;;;;;3.22;0.85;;;17.60;33.30;;;;;;6840939;25;20005;-71
2024/04/10 13:33:22;;;;;;;1.90;0.63;;;17.60;33.30;;;;;;6837691;25;20004;-70
2024/04/10 13:36:22;;;;;;;1.02;0.50;;;17.70;33.40;;;;;;6837419;25;20730;-70
2024/04/10 13:39:23;;;;;;;0.75;0.30;;;17.60;33.20;;;;;;6803459;25;20044;-72
2024/04/10 13:42:25;;;;;;;1.05;0.28;;;17.70;33.40;;;;;;6773521;25;20096;-70
2024/04/10 13:45:26;;;;;;;2.53;0.65;;;17.70;33.30;;;;;;6842231;25;20024;-72
2024/04/10 13:48:29;;;;;;;2.72;0.60;;;17.70;33.20;;;;;;6803416;25;20043;-71
2024/04/10 13:51:37;;;;;;;2.03;0.55;;;17.80;33.20;;;;;;6812209;25;20001;-71
2024/04/10 13:54:38;;;;;;;2.15;0.70;;;17.80;33.10;;;;;;6775607;25;20005;-71
2024/04/10 13:57:39;;;;;;;2.53;0.65;;;17.90;33.10;;;;;;6804886;25;20765;-71
2024/04/10 14:00:41;;;;;;;1.23;0.45;;;17.90;32.90;;;;;;6800800;25;20322;-71
2024/04/10 14:03:46;;;;;;;2.63;0.88;;;17.90;32.90;;;;;;6804832;25;20093;-70
2024/04/10 14:06:49;;;;;;;4.57;0.98;;;17.90;32.90;;;;;;6805518;25;20037;-71
2024/04/10 14:09:51;;;;;;;1.25;0.50;;;17.90;32.70;;;;;;6789958;25;20009;-71
2024/04/10 14:12:53;;;;;;;2.70;0.40;;;17.80;32.60;;;;;;6808832;25;20015;-74
2024/04/10 14:15:54;;;;;;;1.17;0.35;;;17.80;32.60;;;;;;6803066;25;19997;-73
2024/04/10 14:18:55;;;;;;;3.10;0.85;;;17.70;32.70;;;;;;6775184;25;20365;-71
2024/04/10 14:21:57;;;;;;;1.58;0.98;;;17.80;32.90;;;;;;6777917;25;20061;-72
2024/04/10 14:24:58;;;;;;;0.90;0.40;;;17.80;33.30;;;;;;6802291;25;20005;-71
2024/04/10 14:27:59;;;;;;;0.80;0.45;;;17.80;33.20;;;;;;6809159;25;20305;-72
2024/04/10 14:31:03;;;;;;;0.70;0.38;;;17.80;33.20;;;;;;6789603;25;20388;-74
2024/04/10 14:34:04;;;;;;;1.27;0.77;;;17.80;33.40;;;;;;6796129;26;20481;-74
2024/04/10 14:37:08;;;;;;;3.28;0.68;;;17.80;33.20;;;;;;6804517;26;20504;-72
2024/04/10 14:40:09;;;;;;;1.05;0.40;;;17.80;33.30;;;;;;6805929;25;20125;-72
2024/04/10 14:43:11;;;;;;;3.00;0.60;;;17.70;33.00;;;;;;6838493;26;20038;-74
2024/04/10 14:46:14;;;;;;;4.15;0.63;;;17.70;33.20;;;;;;6819888;26;20045;-72
2024/04/10 14:49:15;;;;;;;2.88;0.70;;;17.60;33.40;;;;;;6836909;25;20176;-73
2024/04/10 14:52:16;;;;;;;3.25;0.68;;;17.60;33.20;;;;;;6837241;26;20417;-73
2024/04/10 14:55:17;;;;;;;2.13;0.73;;;17.50;33.40;;;;;;6837408;26;20009;-73
2024/04/10 14:58:18;;;;;;;0.45;0.45;;;17.50;33.40;;;;;;6835501;26;20495;-73
2024/04/10 15:01:27;;;;;;;5.20;0.85;;;17.50;33.50;;;;;;6835070;26;20105;-75
2024/04/10 15:04:28;;;;;;;3.85;0.82;;;17.40;33.70;;;;;;6835377;26;19997;-73
2024/04/10 15:07:31;;;;;;;1.33;0.52;;;17.40;33.70;;;;;;6803919;26;20049;-74
2024/04/10 15:10:43;;;;;;;3.13;0.80;;;17.30;33.70;;;;;;6837343;25;20563;-73
2024/04/10 15:13:44;;;;;;;3.42;0.65;;;17.30;33.70;;;;;;6805493;26;20450;-73
2024/04/10 15:16:47;;;;;;;7.03;0.82;;;17.30;33.90;;;;;;6835172;26;20217;-73
2024/04/10 15:19:48;;;;;;;3.60;0.63;;;17.30;34.20;;;;;;6786414;26;19990;-73
2024/04/10 15:22:50;;;;;;;5.18;0.90;;;17.30;34.20;;;;;;6792483;26;19994;-74
2024/04/10 15:25:58;;;;;;;2.70;0.77;;;17.30;34.20;;;;;;6835894;26;19989;-73
2024/04/10 15:28:59;;;;;;;2.30;0.50;;;17.30;34.10;;;;;;6835576;26;20025;-73
2024/04/10 15:32:00;;;;;;;5.68;0.70;;;17.20;34.20;;;;;;6835552;25;20757;-74
2024/04/10 15:35:04;;;;;;;1.02;0.52;;;17.20;34.30;;;;;;6829679;26;20001;-74
2024/04/10 15:38:08;;;;;;;1.98;0.80;;;17.20;34.40;;;;;;6834874;26;19997;-73
2024/04/10 15:41:12;;;;;;;1.52;0.82;;;17.20;34.60;;;;;;6789769;26;19994;-73
2024/04/10 15:44:13;;;;;;;4.55;0.85;;;17.20;34.60;;;;;;6808283;26;20050;-71
2024/04/10 15:47:14;;;;;;;0.63;0.63;;;17.30;34.80;;;;;;6788860;26;19997;-73
2024/04/10 15:50:15;;;;;;;11.32;0.70;;;17.30;34.80;;;;;;6775114;26;20122;-72